createdAt,value
2018-12-18T00:00:42.770Z,17.10
2018-12-18T00:01:42.693Z,16.80
2018-12-18T00:02:42.607Z,16.40
2018-12-18T00:03:42.519Z,16.50
2018-12-18T00:04:42.431Z,16.70
2018-12-18T00:05:42.343Z,16.70
2018-12-18T00:06:42.258Z,16.80
2018-12-18T00:07:42.182Z,15.70
2018-12-18T00:08:42.082Z,16.20
2018-12-18T00:09:41.995Z,16.90
2018-12-18T00:10:41.913Z,16.10
2018-12-18T00:11:41.832Z,16.30
2018-12-18T00:12:41.745Z,16.10
2018-12-18T00:13:41.659Z,16.20
2018-12-18T00:14:41.570Z,15.10
2018-12-18T00:15:41.483Z,16.10
2018-12-18T00:16:41.395Z,15.50
2018-12-18T00:17:41.313Z,15.70
2018-12-18T00:18:41.220Z,15.80
2018-12-18T00:19:41.133Z,16.90
2018-12-18T00:20:41.060Z,16.10
2018-12-18T00:21:40.983Z,16.90
2018-12-18T00:22:40.883Z,16.50
2018-12-18T00:23:40.800Z,16.60
2018-12-18T00:24:40.713Z,16.30
2018-12-18T00:25:40.620Z,16.50
2018-12-18T00:26:40.534Z,16.40
2018-12-18T00:27:40.448Z,16.90
2018-12-18T00:28:40.372Z,17.80
2018-12-18T00:29:40.285Z,15.80
2018-12-18T00:30:40.196Z,16.60
2018-12-18T00:31:40.109Z,17.40
2018-12-18T00:32:40.021Z,17.50
2018-12-18T00:33:45.890Z,17.90
2018-12-18T00:34:39.847Z,17.80
2018-12-18T00:35:39.761Z,18.20
2018-12-18T00:36:39.672Z,16.60
2018-12-18T00:37:39.585Z,17.40
2018-12-18T00:38:39.498Z,17.20
2018-12-18T00:39:39.422Z,16.80
2018-12-18T00:40:39.335Z,17.20
2018-12-18T00:41:39.246Z,17.40
2018-12-18T00:42:39.162Z,16.70
2018-12-18T00:43:39.073Z,16.20
2018-12-18T00:44:38.986Z,16.90
2018-12-18T00:45:38.897Z,16.70
2018-12-18T00:46:38.811Z,16.40
2018-12-18T00:47:38.723Z,17.60
2018-12-18T00:48:38.649Z,16.60
2018-12-18T00:49:38.562Z,17.40
2018-12-18T00:50:38.485Z,17.20
2018-12-18T00:51:38.389Z,16.90
2018-12-18T00:52:38.298Z,17.40
2018-12-18T00:53:38.214Z,17.30
2018-12-18T00:54:38.125Z,16.90
2018-12-18T00:55:38.037Z,17.40
2018-12-18T00:56:37.949Z,16.70
2018-12-18T00:57:37.875Z,17.10
2018-12-18T00:58:37.787Z,16.50
2018-12-18T00:59:37.700Z,16.80
2018-12-18T01:00:37.616Z,16.20
2018-12-18T01:01:37.524Z,17.10
2018-12-18T01:02:37.438Z,17.60
2018-12-18T01:03:37.354Z,17.10
2018-12-18T01:04:37.263Z,16.40
2018-12-18T01:05:37.191Z,17.00
2018-12-18T01:06:37.089Z,17.40
2018-12-18T01:07:37.018Z,18.00
2018-12-18T01:08:36.926Z,17.70
2018-12-18T01:09:36.839Z,17.50
2018-12-18T01:10:36.751Z,17.60
2018-12-18T01:11:36.663Z,17.40
2018-12-18T01:12:36.611Z,17.30
2018-12-18T01:13:36.489Z,17.50
2018-12-18T01:14:36.401Z,17.80
2018-12-18T01:15:36.316Z,16.40
2018-12-18T01:16:36.239Z,18.40
2018-12-18T01:17:36.151Z,17.70
2018-12-18T01:18:36.064Z,17.10
2018-12-18T01:19:35.977Z,17.40
2018-12-18T01:20:35.890Z,16.70
2018-12-18T01:21:35.808Z,17.60
2018-12-18T01:22:35.715Z,16.50
2018-12-18T01:23:35.627Z,17.50
2018-12-18T01:24:35.540Z,17.90
2018-12-18T01:25:35.466Z,17.50
2018-12-18T01:26:35.377Z,17.40
2018-12-18T01:27:35.291Z,16.80
2018-12-18T01:28:35.203Z,17.10
2018-12-18T01:29:35.116Z,16.70
2018-12-18T01:30:35.027Z,16.50
2018-12-18T01:31:34.942Z,17.20
2018-12-18T01:32:34.854Z,16.40
2018-12-18T01:33:34.778Z,17.10
2018-12-18T01:34:34.680Z,17.10
2018-12-18T01:35:34.616Z,16.90
2018-12-18T01:36:34.518Z,16.90
2018-12-18T01:37:34.429Z,16.60
2018-12-18T01:38:34.342Z,17.30
2018-12-18T01:39:34.255Z,17.60
2018-12-18T01:40:34.169Z,16.40
2018-12-18T01:41:34.080Z,16.90
2018-12-18T01:42:33.994Z,17.30
2018-12-18T01:43:33.906Z,16.90
2018-12-18T01:44:33.830Z,16.20
2018-12-18T01:45:33.748Z,17.40
2018-12-18T01:46:33.655Z,16.50
2018-12-18T01:47:33.568Z,17.70
2018-12-18T01:48:33.480Z,16.30
2018-12-18T01:49:33.402Z,16.40
2018-12-18T01:50:33.307Z,17.50
2018-12-18T01:51:33.219Z,16.70
2018-12-18T01:52:33.144Z,16.80
2018-12-18T01:53:33.069Z,16.50
2018-12-18T01:54:32.976Z,17.10
2018-12-18T01:55:32.881Z,17.00
2018-12-18T01:56:32.797Z,16.50
2018-12-18T01:57:32.707Z,16.70
2018-12-18T01:58:32.620Z,16.10
2018-12-18T01:59:32.545Z,16.30
2018-12-18T02:00:32.458Z,16.20
2018-12-18T02:01:32.370Z,16.40
2018-12-18T02:02:32.282Z,16.70
2018-12-18T02:03:32.199Z,16.00
2018-12-18T02:04:32.111Z,16.70
2018-12-18T02:05:32.021Z,16.50
2018-12-18T02:06:31.933Z,16.10
2018-12-18T02:07:31.857Z,16.50
2018-12-18T02:08:31.770Z,16.90
2018-12-18T02:09:31.696Z,15.30
2018-12-18T02:10:31.599Z,16.40
2018-12-18T02:11:31.509Z,16.50
2018-12-18T02:12:31.428Z,16.20
2018-12-18T02:13:31.333Z,16.70
2018-12-18T02:14:31.258Z,17.00
2018-12-18T02:15:31.159Z,16.10
2018-12-18T02:16:31.097Z,15.90
2018-12-18T02:17:30.998Z,16.00
2018-12-18T02:18:30.909Z,16.50
2018-12-18T02:19:30.823Z,16.60
2018-12-18T02:20:30.735Z,16.50
2018-12-18T02:21:30.659Z,17.10
2018-12-18T02:22:30.560Z,16.90
2018-12-18T02:23:30.473Z,16.50
2018-12-18T02:24:30.397Z,16.60
2018-12-18T02:25:30.310Z,16.30
2018-12-18T02:26:30.224Z,16.30
2018-12-18T02:27:30.137Z,16.80
2018-12-18T02:28:30.060Z,16.30
2018-12-18T02:29:29.972Z,16.80
2018-12-18T02:30:29.874Z,16.30
2018-12-18T02:31:29.799Z,15.90
2018-12-18T02:32:29.712Z,17.00
2018-12-18T02:33:29.625Z,16.70
2018-12-18T02:34:29.535Z,17.30
2018-12-18T02:35:29.461Z,16.20
2018-12-18T02:36:29.363Z,16.60
2018-12-18T02:37:29.286Z,16.80
2018-12-18T02:38:29.199Z,16.30
2018-12-18T02:39:29.111Z,16.60
2018-12-18T02:40:29.024Z,16.00
2018-12-18T02:41:28.936Z,16.10
2018-12-18T02:42:28.861Z,17.10
2018-12-18T02:43:28.761Z,16.20
2018-12-18T02:44:28.700Z,16.50
2018-12-18T02:45:28.601Z,16.00
2018-12-18T02:46:28.512Z,15.90
2018-12-18T02:47:28.425Z,16.70
2018-12-18T02:48:28.339Z,16.10
2018-12-18T02:49:28.262Z,16.20
2018-12-18T02:50:28.164Z,16.40
2018-12-18T02:51:28.104Z,16.30
2018-12-18T02:52:28.004Z,16.50
2018-12-18T02:53:27.913Z,16.70
2018-12-18T02:54:27.826Z,16.00
2018-12-18T02:55:27.742Z,17.10
2018-12-18T02:56:27.652Z,16.20
2018-12-18T02:57:27.563Z,16.80
2018-12-18T02:58:27.479Z,16.40
2018-12-18T02:59:27.411Z,16.80
2018-12-18T03:00:27.313Z,18.20
2018-12-18T03:01:27.227Z,17.20
2018-12-18T03:02:27.139Z,18.00
2018-12-18T03:03:27.063Z,17.10
2018-12-18T03:04:26.966Z,16.40
2018-12-18T03:05:26.877Z,17.30
2018-12-18T03:06:26.791Z,16.60
2018-12-18T03:07:26.714Z,17.40
2018-12-18T03:08:26.628Z,17.80
2018-12-18T03:09:26.540Z,17.00
2018-12-18T03:10:26.454Z,16.60
2018-12-18T03:11:26.366Z,17.20
2018-12-18T03:12:26.283Z,17.30
2018-12-18T03:13:26.192Z,17.60
2018-12-18T03:14:26.115Z,17.50
2018-12-18T03:15:26.029Z,17.80
2018-12-18T03:16:25.962Z,16.40
2018-12-18T03:17:25.855Z,18.20
2018-12-18T03:18:25.766Z,18.00
2018-12-18T03:19:25.684Z,17.70
2018-12-18T03:20:25.593Z,18.70
2018-12-18T03:21:25.516Z,18.70
2018-12-18T03:22:25.430Z,18.50
2018-12-18T03:23:25.357Z,18.90
2018-12-18T03:24:25.256Z,19.30
2018-12-18T03:25:25.167Z,18.60
2018-12-18T03:26:25.085Z,19.50
2018-12-18T03:27:24.992Z,20.00
2018-12-18T03:28:24.907Z,19.20
2018-12-18T03:29:24.833Z,19.70
2018-12-18T03:30:24.757Z,19.80
2018-12-18T03:31:24.665Z,20.10
2018-12-18T03:32:24.569Z,21.30
2018-12-18T03:33:24.487Z,20.20
2018-12-18T03:34:28.216Z,19.70
2018-12-18T03:35:24.305Z,20.30
2018-12-18T03:36:24.219Z,20.50
2018-12-18T03:37:24.155Z,20.10
2018-12-18T03:38:24.056Z,20.30
2018-12-18T03:39:23.968Z,20.90
2018-12-18T03:40:23.886Z,19.90
2018-12-18T03:41:23.795Z,20.50
2018-12-18T03:42:23.807Z,20.90
2018-12-18T03:43:23.619Z,21.00
2018-12-18T03:44:23.556Z,21.10
2018-12-18T03:45:23.456Z,20.90
2018-12-18T03:46:23.368Z,21.10
2018-12-18T03:47:23.285Z,21.20
2018-12-18T03:48:23.193Z,20.60
2018-12-18T03:49:23.106Z,20.60
2018-12-18T03:50:23.018Z,21.30
2018-12-18T03:51:22.932Z,21.00
2018-12-18T03:52:22.857Z,21.30
2018-12-18T03:53:22.769Z,21.30
2018-12-18T03:54:22.687Z,21.30
2018-12-18T03:55:22.594Z,21.00
2018-12-18T03:56:22.508Z,21.80
2018-12-18T03:57:22.419Z,22.10
2018-12-18T03:58:22.333Z,22.10
2018-12-18T03:59:22.258Z,22.50
2018-12-18T04:00:22.173Z,22.60
2018-12-18T04:01:22.090Z,21.50
2018-12-18T04:02:21.995Z,22.60
2018-12-18T04:03:21.908Z,22.70
2018-12-18T04:04:21.820Z,22.00
2018-12-18T04:05:21.735Z,21.70
2018-12-18T04:06:21.653Z,22.70
2018-12-18T04:07:21.559Z,23.80
2018-12-18T04:08:21.487Z,23.80
2018-12-18T04:09:21.396Z,23.20
2018-12-18T04:10:21.309Z,22.60
2018-12-18T04:11:21.222Z,23.50
2018-12-18T04:12:21.134Z,23.90
2018-12-18T04:13:21.047Z,23.30
2018-12-18T04:14:20.961Z,24.50
2018-12-18T04:15:20.886Z,24.40
2018-12-18T04:16:20.799Z,23.80
2018-12-18T04:17:20.712Z,24.40
2018-12-18T04:18:20.622Z,23.40
2018-12-18T04:19:20.535Z,24.40
2018-12-18T04:20:20.449Z,23.30
2018-12-18T04:21:20.361Z,24.40
2018-12-18T04:22:20.283Z,24.00
2018-12-18T04:23:20.206Z,24.80
2018-12-18T04:24:20.114Z,25.30
2018-12-18T04:25:20.024Z,24.20
2018-12-18T04:26:19.936Z,24.50
2018-12-18T04:27:19.848Z,24.30
2018-12-18T04:28:19.762Z,23.60
2018-12-18T04:29:19.688Z,23.90
2018-12-18T04:30:19.598Z,25.20
2018-12-18T04:31:19.516Z,23.90
2018-12-18T04:32:19.424Z,25.20
2018-12-18T04:33:19.336Z,24.70
2018-12-18T04:34:19.250Z,25.80
2018-12-18T04:35:19.162Z,25.70
2018-12-18T04:36:19.084Z,25.80
2018-12-18T04:37:18.999Z,26.00
2018-12-18T04:38:18.913Z,26.80
2018-12-18T04:39:18.828Z,25.50
2018-12-18T04:40:18.741Z,26.00
2018-12-18T04:41:18.650Z,26.00
2018-12-18T04:42:18.563Z,24.50
2018-12-18T04:43:18.476Z,24.90
2018-12-18T04:44:18.388Z,26.30
2018-12-18T04:45:18.314Z,27.80
2018-12-18T04:46:18.227Z,27.10
2018-12-18T04:47:18.140Z,27.30
2018-12-18T04:48:18.051Z,28.50
2018-12-18T04:49:17.964Z,27.80
2018-12-18T04:50:17.890Z,27.40
2018-12-18T04:51:17.790Z,28.20
2018-12-18T04:52:17.703Z,27.50
2018-12-18T04:53:17.626Z,27.40
2018-12-18T04:54:17.541Z,28.20
2018-12-18T04:55:17.460Z,27.70
2018-12-18T04:56:17.366Z,27.80
2018-12-18T04:57:17.289Z,27.60
2018-12-18T04:58:17.191Z,28.20
2018-12-18T04:59:17.102Z,28.50
2018-12-18T05:00:17.016Z,28.50
2018-12-18T05:01:16.941Z,28.30
2018-12-18T05:02:16.852Z,27.70
2018-12-18T05:03:16.765Z,28.40
2018-12-18T05:04:16.678Z,28.10
2018-12-18T05:05:16.593Z,28.30
2018-12-18T05:06:16.504Z,28.20
2018-12-18T05:07:16.416Z,27.50
2018-12-18T05:08:16.343Z,27.80
2018-12-18T05:09:16.258Z,27.60
2018-12-18T05:10:16.167Z,28.10
2018-12-18T05:11:16.078Z,27.90
2018-12-18T05:12:15.992Z,28.20
2018-12-18T05:13:15.907Z,28.60
2018-12-18T05:14:15.822Z,28.80
2018-12-18T05:15:15.729Z,29.10
2018-12-18T05:16:15.656Z,28.90
2018-12-18T05:17:15.568Z,27.60
2018-12-18T05:18:15.491Z,28.40
2018-12-18T05:19:15.395Z,28.10
2018-12-18T05:20:15.304Z,29.70
2018-12-18T05:21:15.219Z,29.60
2018-12-18T05:22:15.134Z,28.60
2018-12-18T05:23:15.044Z,29.00
2018-12-18T05:24:14.956Z,27.80
2018-12-18T05:25:14.882Z,28.90
2018-12-18T05:26:14.793Z,27.30
2018-12-18T05:27:14.706Z,28.10
2018-12-18T05:28:16.193Z,28.90
2018-12-18T05:29:14.543Z,27.60
2018-12-18T05:30:14.445Z,28.50
2018-12-18T05:31:14.358Z,28.80
2018-12-18T05:32:14.282Z,27.40
2018-12-18T05:33:14.194Z,27.40
2018-12-18T05:34:14.167Z,27.90
2018-12-18T05:35:14.021Z,26.70
2018-12-18T05:36:13.933Z,28.00
2018-12-18T05:37:13.845Z,26.40
2018-12-18T05:38:13.759Z,26.20
2018-12-18T05:39:13.672Z,27.20
2018-12-18T05:40:13.584Z,26.60
2018-12-18T05:41:13.507Z,26.50
2018-12-18T05:42:13.420Z,25.90
2018-12-18T05:43:13.332Z,27.20
2018-12-18T05:44:13.246Z,26.90
2018-12-18T05:45:13.171Z,27.00
2018-12-18T05:46:13.073Z,25.30
2018-12-18T05:47:12.984Z,25.90
2018-12-18T05:48:12.908Z,26.50
2018-12-18T05:49:12.821Z,24.70
2018-12-18T05:50:12.733Z,25.70
2018-12-18T05:51:12.646Z,25.40
2018-12-18T05:52:12.559Z,25.30
2018-12-18T05:53:12.532Z,25.10
2018-12-18T05:54:12.383Z,25.30
2018-12-18T05:55:12.297Z,25.30
2018-12-18T05:56:12.222Z,24.70
2018-12-18T05:57:12.134Z,25.20
2018-12-18T05:58:12.048Z,25.20
2018-12-18T05:59:11.972Z,26.10
2018-12-18T06:00:11.873Z,24.30
2018-12-18T06:01:11.784Z,24.20
2018-12-18T06:02:11.698Z,24.70
2018-12-18T06:03:11.622Z,24.70
2018-12-18T06:04:11.535Z,24.60
2018-12-18T06:05:11.455Z,25.30
2018-12-18T06:06:11.360Z,24.90
2018-12-18T06:07:11.275Z,24.10
2018-12-18T06:08:11.187Z,24.40
2018-12-18T06:09:11.098Z,25.20
2018-12-18T06:10:11.012Z,24.40
2018-12-18T06:11:10.936Z,24.70
2018-12-18T06:12:10.849Z,24.10
2018-12-18T06:13:10.761Z,24.60
2018-12-18T06:14:10.674Z,23.80
2018-12-18T06:15:10.587Z,23.60
2018-12-18T06:16:10.511Z,24.60
2018-12-18T06:17:10.424Z,24.50
2018-12-18T06:18:10.350Z,24.00
2018-12-18T06:19:10.249Z,23.00
2018-12-18T06:20:10.163Z,24.40
2018-12-18T06:21:10.080Z,23.50
2018-12-18T06:22:09.986Z,23.50
2018-12-18T06:23:09.900Z,24.40
2018-12-18T06:24:09.830Z,23.80
2018-12-18T06:25:09.738Z,23.60
2018-12-18T06:26:09.650Z,23.40
2018-12-18T06:27:09.565Z,23.80
2018-12-18T06:28:09.475Z,23.30
2018-12-18T06:29:09.403Z,23.80
2018-12-18T06:30:09.302Z,23.20
2018-12-18T06:31:09.231Z,23.90
2018-12-18T06:32:09.138Z,23.60
2018-12-18T06:33:09.051Z,23.80
2018-12-18T06:34:08.963Z,24.10
2018-12-18T06:35:10.379Z,22.30
2018-12-18T06:36:08.790Z,22.90
2018-12-18T06:37:08.713Z,23.60
2018-12-18T06:38:08.630Z,23.10
2018-12-18T06:39:08.539Z,22.60
2018-12-18T06:40:08.451Z,22.60
2018-12-18T06:41:08.368Z,22.80
2018-12-18T06:42:08.289Z,22.30
2018-12-18T06:43:08.191Z,22.50
2018-12-18T06:44:08.126Z,23.30
2018-12-18T06:45:08.028Z,23.20
2018-12-18T06:46:07.939Z,23.70
2018-12-18T06:47:07.856Z,23.30
2018-12-18T06:48:07.764Z,22.80
2018-12-18T06:49:07.690Z,23.80
2018-12-18T06:50:07.602Z,23.30
2018-12-18T06:51:07.528Z,22.60
2018-12-18T06:52:07.427Z,23.10
2018-12-18T06:53:07.340Z,22.70
2018-12-18T06:54:07.253Z,23.80
2018-12-18T06:55:07.165Z,23.50
2018-12-18T06:56:07.090Z,23.20
2018-12-18T06:57:07.003Z,23.50
2018-12-18T06:58:06.916Z,23.70
2018-12-18T06:59:06.831Z,23.40
2018-12-18T07:00:06.741Z,22.50
2018-12-18T07:01:06.655Z,23.30
2018-12-18T07:02:06.569Z,23.50
2018-12-18T07:03:06.537Z,23.60
2018-12-18T07:04:06.404Z,23.10
2018-12-18T07:05:06.316Z,23.00
2018-12-18T07:06:06.230Z,23.40
2018-12-18T07:07:06.142Z,23.90
2018-12-18T07:08:06.055Z,23.10
2018-12-18T07:09:05.981Z,22.80
2018-12-18T07:10:05.894Z,22.90
2018-12-18T07:11:05.806Z,23.20
2018-12-18T07:12:05.717Z,23.80
2018-12-18T07:13:05.633Z,22.50
2018-12-18T07:14:05.545Z,22.70
2018-12-18T07:15:05.467Z,22.10
2018-12-18T07:16:05.380Z,22.70
2018-12-18T07:17:05.294Z,23.60
2018-12-18T07:18:05.206Z,23.00
2018-12-18T07:19:05.124Z,22.90
2018-12-18T07:20:05.032Z,22.50
2018-12-18T07:21:04.945Z,23.70
2018-12-18T07:22:04.869Z,23.50
2018-12-18T07:23:04.782Z,22.40
2018-12-18T07:24:04.694Z,24.20
2018-12-18T07:25:04.607Z,23.10
2018-12-18T07:26:04.519Z,22.80
2018-12-18T07:27:04.433Z,22.60
2018-12-18T07:28:04.357Z,22.70
2018-12-18T07:29:04.270Z,22.50
2018-12-18T07:30:04.183Z,21.70
2018-12-18T07:31:04.095Z,21.90
2018-12-18T07:32:04.044Z,22.40
2018-12-18T07:33:03.934Z,22.80
2018-12-18T07:34:03.845Z,22.40
2018-12-18T07:35:03.759Z,22.10
2018-12-18T07:36:03.669Z,21.50
2018-12-18T07:37:03.586Z,21.00
2018-12-18T07:38:03.500Z,22.90
2018-12-18T07:39:03.409Z,22.50
2018-12-18T07:40:03.322Z,22.60
2018-12-18T07:41:03.245Z,22.50
2018-12-18T07:42:03.158Z,22.00
2018-12-18T07:43:03.084Z,22.00
2018-12-18T07:44:02.985Z,22.40
2018-12-18T07:45:02.897Z,22.20
2018-12-18T07:46:02.814Z,21.80
2018-12-18T07:47:02.735Z,22.90
2018-12-18T07:48:02.647Z,22.90
2018-12-18T07:49:02.561Z,22.70
2018-12-18T07:50:02.484Z,22.00
2018-12-18T07:51:02.386Z,22.00
2018-12-18T07:52:02.297Z,21.60
2018-12-18T07:53:02.222Z,21.50
2018-12-18T07:54:02.136Z,22.80
2018-12-18T07:55:02.048Z,21.20
2018-12-18T07:56:01.961Z,22.10
2018-12-18T07:57:01.875Z,21.10
2018-12-18T07:58:01.786Z,21.80
2018-12-18T07:59:01.711Z,21.80
2018-12-18T08:00:01.626Z,21.80
2018-12-18T08:01:01.540Z,22.30
2018-12-18T08:02:01.448Z,22.40
2018-12-18T08:03:01.374Z,22.00
2018-12-18T08:04:01.274Z,21.80
2018-12-18T08:05:01.189Z,22.60
2018-12-18T08:06:01.112Z,21.70
2018-12-18T08:07:01.024Z,20.90
2018-12-18T08:08:00.937Z,21.00
2018-12-18T08:09:00.849Z,20.80
2018-12-18T08:10:00.762Z,21.10
2018-12-18T08:11:00.676Z,21.20
2018-12-18T08:12:00.599Z,20.30
2018-12-18T08:13:00.512Z,20.90
2018-12-18T08:14:00.424Z,21.10
2018-12-18T08:15:00.338Z,20.50
2018-12-18T08:16:00.252Z,21.60
2018-12-18T08:17:00.162Z,21.60
2018-12-18T08:18:00.076Z,21.50
2018-12-18T08:19:00.000Z,20.40
2018-12-18T08:19:59.912Z,20.00
2018-12-18T08:20:59.825Z,20.80
2018-12-18T08:21:59.740Z,20.70
2018-12-18T08:22:59.651Z,20.90
2018-12-18T08:23:59.564Z,19.80
2018-12-18T08:24:59.489Z,20.50
2018-12-18T08:25:59.404Z,20.50
2018-12-18T08:26:59.313Z,20.60
2018-12-18T08:27:59.225Z,20.40
2018-12-18T08:28:59.139Z,20.30
2018-12-18T08:29:59.052Z,20.40
2018-12-18T08:30:58.977Z,20.50
2018-12-18T08:31:58.889Z,19.80
2018-12-18T08:32:58.803Z,20.50
2018-12-18T08:33:58.715Z,20.00
2018-12-18T08:34:58.626Z,19.80
2018-12-18T08:35:58.540Z,20.50
2018-12-18T08:36:58.465Z,20.70
2018-12-18T08:37:58.377Z,21.10
2018-12-18T08:38:58.292Z,20.60
2018-12-18T08:39:58.202Z,19.90
2018-12-18T08:40:58.118Z,20.70
2018-12-18T08:41:58.027Z,19.90
2018-12-18T08:42:57.953Z,20.10
2018-12-18T08:43:57.866Z,19.90
2018-12-18T08:44:57.783Z,20.30
2018-12-18T08:45:57.691Z,20.60
2018-12-18T08:46:57.604Z,19.90
2018-12-18T08:47:57.517Z,19.80
2018-12-18T08:48:57.443Z,19.80
2018-12-18T08:49:57.354Z,19.00
2018-12-18T08:50:57.267Z,19.00
2018-12-18T08:51:57.191Z,19.10
2018-12-18T08:52:57.092Z,19.00
2018-12-18T08:53:57.069Z,20.10
2018-12-18T08:54:56.931Z,20.10
2018-12-18T08:55:56.842Z,19.10
2018-12-18T08:56:56.754Z,19.50
2018-12-18T08:57:56.667Z,20.00
2018-12-18T08:58:56.592Z,19.00
2018-12-18T08:59:56.504Z,19.00
2018-12-18T09:00:56.417Z,19.60
2018-12-18T09:01:56.329Z,19.30
2018-12-18T09:02:56.242Z,17.80
2018-12-18T09:03:56.158Z,18.70
2018-12-18T09:04:56.079Z,19.60
2018-12-18T09:05:55.993Z,20.20
2018-12-18T09:06:55.904Z,19.00
2018-12-18T09:07:55.818Z,19.50
2018-12-18T09:08:55.743Z,18.60
2018-12-18T09:09:55.643Z,19.20
2018-12-18T09:10:55.573Z,18.70
2018-12-18T09:11:55.480Z,19.90
2018-12-18T09:12:55.394Z,18.90
2018-12-18T09:13:55.305Z,18.70
2018-12-18T09:14:55.219Z,19.40
2018-12-18T09:15:55.144Z,18.80
2018-12-18T09:16:55.060Z,18.70
2018-12-18T09:17:54.970Z,18.90
2018-12-18T09:18:54.881Z,19.20
2018-12-18T09:19:54.794Z,18.90
2018-12-18T09:20:54.719Z,18.70
2018-12-18T09:21:54.631Z,18.40
2018-12-18T09:22:54.544Z,18.80
2018-12-18T09:23:54.459Z,17.70
2018-12-18T09:24:54.382Z,17.90
2018-12-18T09:25:54.294Z,18.50
2018-12-18T09:26:54.207Z,18.60
2018-12-18T09:27:54.120Z,18.40
2018-12-18T09:28:54.044Z,18.20
2018-12-18T09:29:53.956Z,17.80
2018-12-18T09:30:53.877Z,18.30
2018-12-18T09:31:53.782Z,17.80
2018-12-18T09:32:53.698Z,19.30
2018-12-18T09:33:53.608Z,18.60
2018-12-18T09:34:53.547Z,18.60
2018-12-18T09:35:53.446Z,18.20
2018-12-18T09:36:53.357Z,18.00
2018-12-18T09:37:53.278Z,18.20
2018-12-18T09:38:53.184Z,17.90
2018-12-18T09:39:53.108Z,19.00
2018-12-18T09:40:53.021Z,18.40
2018-12-18T09:41:52.949Z,18.40
2018-12-18T09:42:52.847Z,18.00
2018-12-18T09:43:52.771Z,18.20
2018-12-18T09:44:52.683Z,17.80
2018-12-18T09:45:52.598Z,19.10
2018-12-18T09:46:52.509Z,17.60
2018-12-18T09:47:52.422Z,18.20
2018-12-18T09:48:52.347Z,18.10
2018-12-18T09:49:52.259Z,17.70
2018-12-18T09:50:52.173Z,17.80
2018-12-18T09:51:52.084Z,18.60
2018-12-18T09:52:51.998Z,17.30
2018-12-18T09:53:51.922Z,18.60
2018-12-18T09:54:51.834Z,18.00
2018-12-18T09:55:51.747Z,18.00
2018-12-18T09:56:51.673Z,17.70
2018-12-18T09:57:51.584Z,18.50
2018-12-18T09:58:51.498Z,18.50
2018-12-18T09:59:51.410Z,18.30
2018-12-18T10:00:51.337Z,17.30
2018-12-18T10:01:51.235Z,17.60
2018-12-18T10:02:51.160Z,17.80
2018-12-18T10:03:51.074Z,18.40
2018-12-18T10:04:50.986Z,18.40
2018-12-18T10:05:56.139Z,17.70
2018-12-18T10:06:50.824Z,17.80
2018-12-18T10:07:50.736Z,17.80
2018-12-18T10:08:50.651Z,17.60
2018-12-18T10:09:50.561Z,17.50
2018-12-18T10:10:50.478Z,18.00
2018-12-18T10:11:50.400Z,18.20
2018-12-18T10:12:50.324Z,17.20
2018-12-18T10:13:50.229Z,17.20
2018-12-18T10:14:50.138Z,18.10
2018-12-18T10:15:50.062Z,17.00
2018-12-18T10:16:49.975Z,17.90
2018-12-18T10:17:49.887Z,18.30
2018-12-18T10:18:49.801Z,17.10
2018-12-18T10:19:49.726Z,17.40
2018-12-18T10:20:49.637Z,17.70
2018-12-18T10:21:49.558Z,17.60
2018-12-18T10:22:49.462Z,17.50
2018-12-18T10:23:49.388Z,17.80
2018-12-18T10:24:49.303Z,17.20
2018-12-18T10:25:49.226Z,17.50
2018-12-18T10:26:49.126Z,16.90
2018-12-18T10:27:49.053Z,17.00
2018-12-18T10:28:48.975Z,17.40
2018-12-18T10:29:48.877Z,17.30
2018-12-18T10:30:48.788Z,17.10
2018-12-18T10:31:48.727Z,17.40
2018-12-18T10:32:48.631Z,17.40
2018-12-18T10:33:48.541Z,17.50
2018-12-18T10:34:48.455Z,17.90
2018-12-18T10:35:48.377Z,17.00
2018-12-18T10:36:48.288Z,16.60
2018-12-18T10:37:48.203Z,17.50
2018-12-18T10:38:48.115Z,17.30
2018-12-18T10:39:48.038Z,17.10
2018-12-18T10:40:47.954Z,18.00
2018-12-18T10:41:47.864Z,17.70
2018-12-18T10:42:47.779Z,16.70
2018-12-18T10:43:47.704Z,16.80
2018-12-18T10:44:47.614Z,16.40
2018-12-18T10:45:47.528Z,16.60
2018-12-18T10:46:47.452Z,16.70
2018-12-18T10:47:47.365Z,16.80
2018-12-18T10:48:47.279Z,17.10
2018-12-18T10:49:47.190Z,17.10
2018-12-18T10:50:47.104Z,17.10
2018-12-18T10:51:47.029Z,17.00
2018-12-18T10:52:46.940Z,16.90
2018-12-18T10:53:46.854Z,16.80
2018-12-18T10:54:46.765Z,16.80
2018-12-18T10:55:46.690Z,15.80
2018-12-18T10:56:46.605Z,16.90
2018-12-18T10:57:46.516Z,16.80
2018-12-18T10:58:46.430Z,17.20
2018-12-18T10:59:46.355Z,16.70
2018-12-18T11:00:46.267Z,17.00
2018-12-18T11:01:46.180Z,16.40
2018-12-18T11:02:46.093Z,16.70
2018-12-18T11:03:46.017Z,16.40
2018-12-18T11:04:45.930Z,17.00
2018-12-18T11:05:45.843Z,17.90
2018-12-18T11:06:45.769Z,16.90
2018-12-18T11:07:45.682Z,16.70
2018-12-18T11:08:45.593Z,17.20
2018-12-18T11:09:45.518Z,16.60
2018-12-18T11:10:45.433Z,16.70
2018-12-18T11:11:45.356Z,17.00
2018-12-18T11:12:45.256Z,16.30
2018-12-18T11:13:45.168Z,16.40
2018-12-18T11:14:45.093Z,16.00
2018-12-18T11:15:45.007Z,17.40
2018-12-18T11:16:44.918Z,16.60
2018-12-18T11:17:44.834Z,16.70
2018-12-18T11:18:44.757Z,16.60
2018-12-18T11:19:44.669Z,17.40
2018-12-18T11:20:44.585Z,15.70
2018-12-18T11:21:44.507Z,15.40
2018-12-18T11:22:44.419Z,17.20
2018-12-18T11:23:44.337Z,15.80
2018-12-18T11:24:44.245Z,16.50
2018-12-18T11:25:44.173Z,16.60
2018-12-18T11:26:44.083Z,16.60
2018-12-18T11:27:43.997Z,16.20
2018-12-18T11:28:43.919Z,15.80
2018-12-18T11:29:43.834Z,15.90
2018-12-18T11:30:43.745Z,17.00
2018-12-18T11:31:43.677Z,15.90
2018-12-18T11:32:43.583Z,16.20
2018-12-18T11:33:43.495Z,15.50
2018-12-18T11:34:43.409Z,15.50
2018-12-18T11:35:43.334Z,15.50
2018-12-18T11:36:43.253Z,15.00
2018-12-18T11:37:43.162Z,15.70
2018-12-18T11:38:43.072Z,16.20
2018-12-18T11:39:43.000Z,15.80
2018-12-18T11:40:42.909Z,15.50
2018-12-18T11:41:42.834Z,15.90
2018-12-18T11:42:42.747Z,15.90
2018-12-18T11:43:42.659Z,15.80
2018-12-18T11:44:42.571Z,16.20
2018-12-18T11:45:42.496Z,15.40
2018-12-18T11:46:42.410Z,15.70
2018-12-18T11:47:42.322Z,15.70
2018-12-18T11:48:42.247Z,16.00
2018-12-18T11:49:42.160Z,16.10
2018-12-18T11:50:43.308Z,16.10
2018-12-18T11:51:41.986Z,16.00
2018-12-18T11:52:41.911Z,15.80
2018-12-18T11:53:41.824Z,15.60
2018-12-18T11:54:41.735Z,16.50
2018-12-18T11:55:41.661Z,16.30
2018-12-18T11:56:41.572Z,16.40
2018-12-18T11:57:41.486Z,16.50
2018-12-18T11:58:41.398Z,16.20
2018-12-18T11:59:41.325Z,17.10
2018-12-18T12:00:41.236Z,17.10
2018-12-18T12:01:41.148Z,16.80
2018-12-18T12:02:42.995Z,17.20
2018-12-18T12:03:40.987Z,16.60
2018-12-18T12:04:40.898Z,17.70
2018-12-18T12:05:40.812Z,18.20
2018-12-18T12:06:40.737Z,17.00
2018-12-18T12:07:40.649Z,18.20
2018-12-18T12:08:40.562Z,17.00
2018-12-18T12:09:40.475Z,17.90
2018-12-18T12:10:40.399Z,18.00
2018-12-18T12:11:40.415Z,17.10
2018-12-18T12:12:40.239Z,17.10
2018-12-18T12:13:40.149Z,17.60
2018-12-18T12:14:40.063Z,18.00
2018-12-18T12:15:39.984Z,17.10
2018-12-18T12:16:39.888Z,17.60
2018-12-18T12:17:39.812Z,17.60
2018-12-18T12:18:39.725Z,16.90
2018-12-18T12:19:39.638Z,16.50
2018-12-18T12:20:39.553Z,17.00
2018-12-18T12:21:39.475Z,16.80
2018-12-18T12:22:39.403Z,16.70
2018-12-18T12:23:39.306Z,17.30
2018-12-18T12:24:39.242Z,16.80
2018-12-18T12:25:39.139Z,16.20
2018-12-18T12:26:39.050Z,16.30
2018-12-18T12:27:38.976Z,16.20
2018-12-18T12:28:38.890Z,16.60
2018-12-18T12:29:38.801Z,16.90
2018-12-18T12:30:38.714Z,16.90
2018-12-18T12:31:38.639Z,16.00
2018-12-18T12:32:38.551Z,15.60
2018-12-18T12:33:38.466Z,15.90
2018-12-18T12:34:38.389Z,15.80
2018-12-18T12:35:38.304Z,16.20
2018-12-18T12:36:38.240Z,15.40
2018-12-18T12:37:38.140Z,16.00
2018-12-18T12:38:38.051Z,15.30
2018-12-18T12:39:37.977Z,16.10
2018-12-18T12:40:37.890Z,15.90
2018-12-18T12:41:37.802Z,15.50
2018-12-18T12:42:37.739Z,15.50
2018-12-18T12:43:37.641Z,15.80
2018-12-18T12:44:37.553Z,15.10
2018-12-18T12:45:37.477Z,15.90
2018-12-18T12:46:37.392Z,15.60
2018-12-18T12:47:37.304Z,16.90
2018-12-18T12:48:37.228Z,15.50
2018-12-18T12:49:37.141Z,15.30
2018-12-18T12:50:37.053Z,15.60
2018-12-18T12:51:36.978Z,15.80